sensor_id;sensor_type;location;lat;lon;timestamp;P1;durP1;ratioP1;P2;durP2;ratioP2
67108;SDS011;54027;50.786;7.058;2023-04-25T00:00:19;11.20;;;3.97;;
67108;SDS011;54027;50.786;7.058;2023-04-25T00:02:45;11.50;;;3.60;;
67108;SDS011;54027;50.786;7.058;2023-04-25T00:05:11;6.35;;;3.05;;
67108;SDS011;54027;50.786;7.058;2023-04-25T00:07:37;15.55;;;5.00;;
67108;SDS011;54027;50.786;7.058;2023-04-25T00:10:04;9.35;;;3.70;;
67108;SDS011;54027;50.786;7.058;2023-04-25T00:12:30;12.45;;;4.13;;
67108;SDS011;54027;50.786;7.058;2023-04-25T00:14:55;8.68;;;3.80;;
67108;SDS011;54027;50.786;7.058;2023-04-25T00:17:22;11.40;;;4.25;;
67108;SDS011;54027;50.786;7.058;2023-04-25T00:19:50;12.68;;;4.85;;
67108;SDS011;54027;50.786;7.058;2023-04-25T00:22:16;16.13;;;4.85;;
67108;SDS011;54027;50.786;7.058;2023-04-25T00:24:42;10.48;;;4.50;;
67108;SDS011;54027;50.786;7.058;2023-04-25T00:27:07;10.48;;;4.00;;
67108;SDS011;54027;50.786;7.058;2023-04-25T00:29:33;12.82;;;4.63;;
67108;SDS011;54027;50.786;7.058;2023-04-25T00:31:59;10.48;;;4.32;;
67108;SDS011;54027;50.786;7.058;2023-04-25T00:34:24;13.43;;;4.30;;
67108;SDS011;54027;50.786;7.058;2023-04-25T00:36:49;11.73;;;4.75;;
67108;SDS011;54027;50.786;7.058;2023-04-25T00:39:15;21.40;;;5.00;;
67108;SDS011;54027;50.786;7.058;2023-04-25T00:41:40;14.07;;;4.40;;
67108;SDS011;54027;50.786;7.058;2023-04-25T00:44:06;13.38;;;4.10;;
67108;SDS011;54027;50.786;7.058;2023-04-25T00:46:34;13.38;;;5.03;;
67108;SDS011;54027;50.786;7.058;2023-04-25T00:49:00;11.73;;;4.38;;
67108;SDS011;54027;50.786;7.058;2023-04-25T00:51:26;10.18;;;4.47;;
67108;SDS011;54027;50.786;7.058;2023-04-25T00:53:51;15.35;;;4.45;;
67108;SDS011;54027;50.786;7.058;2023-04-25T00:56:17;10.95;;;3.83;;
67108;SDS011;54027;50.786;7.058;2023-04-25T00:58:43;10.75;;;4.45;;
67108;SDS011;54027;50.786;7.058;2023-04-25T01:01:08;8.05;;;4.45;;
67108;SDS011;54027;50.786;7.058;2023-04-25T01:03:37;13.77;;;4.57;;
67108;SDS011;54027;50.786;7.058;2023-04-25T01:06:08;15.77;;;4.68;;
67108;SDS011;54027;50.786;7.058;2023-04-25T01:08:34;16.35;;;4.88;;
67108;SDS011;54027;50.786;7.058;2023-04-25T01:11:01;13.00;;;4.50;;
67108;SDS011;54027;50.786;7.058;2023-04-25T01:13:26;12.63;;;5.28;;
67108;SDS011;54027;50.786;7.058;2023-04-25T01:15:52;13.75;;;3.92;;
67108;SDS011;54027;50.786;7.058;2023-04-25T01:18:18;18.60;;;4.78;;
67108;SDS011;54027;50.786;7.058;2023-04-25T01:20:44;14.32;;;4.03;;
67108;SDS011;54027;50.786;7.058;2023-04-25T01:23:11;12.57;;;4.00;;
67108;SDS011;54027;50.786;7.058;2023-04-25T01:25:37;13.15;;;4.78;;
67108;SDS011;54027;50.786;7.058;2023-04-25T01:28:03;11.73;;;4.65;;
67108;SDS011;54027;50.786;7.058;2023-04-25T01:30:29;13.40;;;4.80;;
67108;SDS011;54027;50.786;7.058;2023-04-25T01:32:55;10.40;;;4.00;;
67108;SDS011;54027;50.786;7.058;2023-04-25T01:35:21;24.38;;;6.00;;
67108;SDS011;54027;50.786;7.058;2023-04-25T01:37:49;17.48;;;5.00;;
67108;SDS011;54027;50.786;7.058;2023-04-25T01:40:15;17.20;;;4.78;;
67108;SDS011;54027;50.786;7.058;2023-04-25T01:42:43;12.85;;;4.63;;
67108;SDS011;54027;50.786;7.058;2023-04-25T01:45:10;17.27;;;4.30;;
67108;SDS011;54027;50.786;7.058;2023-04-25T01:47:37;13.40;;;4.97;;
67108;SDS011;54027;50.786;7.058;2023-04-25T01:50:04;10.23;;;4.32;;
67108;SDS011;54027;50.786;7.058;2023-04-25T01:52:31;14.68;;;5.43;;
67108;SDS011;54027;50.786;7.058;2023-04-25T01:54:57;15.55;;;4.75;;
67108;SDS011;54027;50.786;7.058;2023-04-25T01:57:24;12.05;;;4.28;;
67108;SDS011;54027;50.786;7.058;2023-04-25T01:59:49;11.80;;;4.78;;
67108;SDS011;54027;50.786;7.058;2023-04-25T02:02:16;15.30;;;5.43;;
67108;SDS011;54027;50.786;7.058;2023-04-25T02:04:41;13.93;;;4.93;;
67108;SDS011;54027;50.786;7.058;2023-04-25T02:07:06;16.02;;;4.85;;
67108;SDS011;54027;50.786;7.058;2023-04-25T02:09:32;11.35;;;5.03;;
67108;SDS011;54027;50.786;7.058;2023-04-25T02:11:57;16.73;;;5.20;;
67108;SDS011;54027;50.786;7.058;2023-04-25T02:14:23;17.45;;;5.88;;
67108;SDS011;54027;50.786;7.058;2023-04-25T02:16:48;14.95;;;5.70;;
67108;SDS011;54027;50.786;7.058;2023-04-25T02:19:14;12.00;;;5.20;;
67108;SDS011;54027;50.786;7.058;2023-04-25T02:21:39;16.23;;;5.63;;
67108;SDS011;54027;50.786;7.058;2023-04-25T02:24:05;19.75;;;5.47;;
67108;SDS011;54027;50.786;7.058;2023-04-25T02:26:30;16.08;;;5.60;;
67108;SDS011;54027;50.786;7.058;2023-04-25T02:28:56;17.25;;;5.35;;
67108;SDS011;54027;50.786;7.058;2023-04-25T02:31:22;14.13;;;5.45;;
67108;SDS011;54027;50.786;7.058;2023-04-25T02:33:47;13.70;;;5.85;;
67108;SDS011;54027;50.786;7.058;2023-04-25T02:36:13;15.93;;;5.35;;
67108;SDS011;54027;50.786;7.058;2023-04-25T02:38:38;17.98;;;5.35;;
67108;SDS011;54027;50.786;7.058;2023-04-25T02:41:04;13.52;;;5.55;;
67108;SDS011;54027;50.786;7.058;2023-04-25T02:43:30;19.23;;;6.25;;
67108;SDS011;54027;50.786;7.058;2023-04-25T02:45:55;16.83;;;5.10;;
67108;SDS011;54027;50.786;7.058;2023-04-25T02:48:21;14.35;;;5.60;;
67108;SDS011;54027;50.786;7.058;2023-04-25T02:50:46;16.30;;;6.35;;
67108;SDS011;54027;50.786;7.058;2023-04-25T02:53:12;16.15;;;5.80;;
67108;SDS011;54027;50.786;7.058;2023-04-25T02:55:37;19.52;;;5.93;;
67108;SDS011;54027;50.786;7.058;2023-04-25T02:58:02;17.30;;;7.10;;
67108;SDS011;54027;50.786;7.058;2023-04-25T03:00:29;17.65;;;6.20;;
67108;SDS011;54027;50.786;7.058;2023-04-25T03:02:54;16.98;;;7.20;;
67108;SDS011;54027;50.786;7.058;2023-04-25T03:05:20;16.67;;;5.40;;
67108;SDS011;54027;50.786;7.058;2023-04-25T03:07:45;16.33;;;5.63;;
67108;SDS011;54027;50.786;7.058;2023-04-25T03:10:11;16.98;;;5.78;;
67108;SDS011;54027;50.786;7.058;2023-04-25T03:12:37;14.40;;;5.60;;
67108;SDS011;54027;50.786;7.058;2023-04-25T03:15:03;14.55;;;5.43;;
67108;SDS011;54027;50.786;7.058;2023-04-25T03:17:28;18.35;;;5.95;;
67108;SDS011;54027;50.786;7.058;2023-04-25T03:19:54;16.60;;;6.80;;
67108;SDS011;54027;50.786;7.058;2023-04-25T03:22:20;14.93;;;5.07;;
67108;SDS011;54027;50.786;7.058;2023-04-25T03:24:46;14.95;;;5.55;;
67108;SDS011;54027;50.786;7.058;2023-04-25T03:27:12;19.52;;;6.20;;
67108;SDS011;54027;50.786;7.058;2023-04-25T03:29:37;14.10;;;4.97;;
67108;SDS011;54027;50.786;7.058;2023-04-25T03:32:03;17.05;;;5.35;;
67108;SDS011;54027;50.786;7.058;2023-04-25T03:34:28;11.57;;;4.80;;
67108;SDS011;54027;50.786;7.058;2023-04-25T03:36:54;12.63;;;4.85;;
67108;SDS011;54027;50.786;7.058;2023-04-25T03:39:19;14.60;;;5.57;;
67108;SDS011;54027;50.786;7.058;2023-04-25T03:41:45;14.00;;;5.68;;
67108;SDS011;54027;50.786;7.058;2023-04-25T03:44:11;20.77;;;6.03;;
67108;SDS011;54027;50.786;7.058;2023-04-25T03:46:36;17.67;;;6.47;;
67108;SDS011;54027;50.786;7.058;2023-04-25T03:49:02;15.88;;;6.15;;
67108;SDS011;54027;50.786;7.058;2023-04-25T03:51:27;15.75;;;5.43;;
67108;SDS011;54027;50.786;7.058;2023-04-25T03:53:52;13.18;;;4.97;;
67108;SDS011;54027;50.786;7.058;2023-04-25T03:56:18;14.73;;;6.00;;
67108;SDS011;54027;50.786;7.058;2023-04-25T03:58:43;15.68;;;5.88;;
67108;SDS011;54027;50.786;7.058;2023-04-25T04:01:09;16.88;;;5.63;;
67108;SDS011;54027;50.786;7.058;2023-04-25T04:03:35;16.85;;;5.57;;
67108;SDS011;54027;50.786;7.058;2023-04-25T04:06:01;15.93;;;5.70;;
67108;SDS011;54027;50.786;7.058;2023-04-25T04:08:29;19.95;;;5.45;;
67108;SDS011;54027;50.786;7.058;2023-04-25T04:10:55;11.80;;;5.85;;
67108;SDS011;54027;50.786;7.058;2023-04-25T04:13:20;17.15;;;5.15;;
67108;SDS011;54027;50.786;7.058;2023-04-25T04:15:46;14.88;;;5.50;;
67108;SDS011;54027;50.786;7.058;2023-04-25T04:18:11;16.25;;;4.95;;
67108;SDS011;54027;50.786;7.058;2023-04-25T04:20:37;15.75;;;6.22;;
67108;SDS011;54027;50.786;7.058;2023-04-25T04:23:02;14.30;;;4.95;;
67108;SDS011;54027;50.786;7.058;2023-04-25T04:25:28;18.63;;;5.70;;
67108;SDS011;54027;50.786;7.058;2023-04-25T04:27:53;18.45;;;5.53;;
67108;SDS011;54027;50.786;7.058;2023-04-25T04:30:23;18.15;;;5.85;;
67108;SDS011;54027;50.786;7.058;2023-04-25T04:32:50;17.58;;;6.32;;
67108;SDS011;54027;50.786;7.058;2023-04-25T04:35:16;19.77;;;5.80;;
67108;SDS011;54027;50.786;7.058;2023-04-25T04:37:41;18.45;;;6.13;;
67108;SDS011;54027;50.786;7.058;2023-04-25T04:40:06;15.02;;;5.63;;
67108;SDS011;54027;50.786;7.058;2023-04-25T04:42:32;17.33;;;6.20;;
67108;SDS011;54027;50.786;7.058;2023-04-25T04:45:03;18.35;;;5.75;;
67108;SDS011;54027;50.786;7.058;2023-04-25T04:47:29;17.75;;;5.60;;
67108;SDS011;54027;50.786;7.058;2023-04-25T04:49:57;17.63;;;5.85;;
67108;SDS011;54027;50.786;7.058;2023-04-25T04:52:22;19.10;;;6.43;;
67108;SDS011;54027;50.786;7.058;2023-04-25T04:54:48;13.82;;;6.47;;
67108;SDS011;54027;50.786;7.058;2023-04-25T04:57:13;18.60;;;5.88;;
67108;SDS011;54027;50.786;7.058;2023-04-25T04:59:39;15.77;;;6.40;;
67108;SDS011;54027;50.786;7.058;2023-04-25T05:02:04;20.35;;;5.97;;
67108;SDS011;54027;50.786;7.058;2023-04-25T05:04:30;21.08;;;6.40;;
67108;SDS011;54027;50.786;7.058;2023-04-25T05:06:55;16.63;;;5.95;;
67108;SDS011;54027;50.786;7.058;2023-04-25T05:09:21;15.27;;;6.70;;
67108;SDS011;54027;50.786;7.058;2023-04-25T05:11:50;23.80;;;7.20;;
67108;SDS011;54027;50.786;7.058;2023-04-25T05:14:16;18.30;;;8.50;;
67108;SDS011;54027;50.786;7.058;2023-04-25T05:16:42;19.63;;;7.10;;
67108;SDS011;54027;50.786;7.058;2023-04-25T05:19:07;19.42;;;6.78;;
67108;SDS011;54027;50.786;7.058;2023-04-25T05:21:32;13.23;;;6.40;;
67108;SDS011;54027;50.786;7.058;2023-04-25T05:23:58;18.05;;;6.97;;
67108;SDS011;54027;50.786;7.058;2023-04-25T05:26:23;19.13;;;8.63;;
67108;SDS011;54027;50.786;7.058;2023-04-25T05:28:49;16.20;;;6.10;;
67108;SDS011;54027;50.786;7.058;2023-04-25T05:31:15;17.55;;;7.47;;
67108;SDS011;54027;50.786;7.058;2023-04-25T05:33:41;21.75;;;6.88;;
67108;SDS011;54027;50.786;7.058;2023-04-25T05:36:06;20.40;;;7.40;;
67108;SDS011;54027;50.786;7.058;2023-04-25T05:38:32;17.05;;;6.05;;
67108;SDS011;54027;50.786;7.058;2023-04-25T05:40:58;17.52;;;6.25;;
67108;SDS011;54027;50.786;7.058;2023-04-25T05:43:23;19.40;;;6.65;;
67108;SDS011;54027;50.786;7.058;2023-04-25T05:45:49;23.27;;;7.93;;
67108;SDS011;54027;50.786;7.058;2023-04-25T05:48:14;21.02;;;6.60;;
67108;SDS011;54027;50.786;7.058;2023-04-25T05:50:39;17.20;;;7.38;;
67108;SDS011;54027;50.786;7.058;2023-04-25T05:53:05;19.65;;;7.70;;
67108;SDS011;54027;50.786;7.058;2023-04-25T05:55:30;15.57;;;6.20;;
67108;SDS011;54027;50.786;7.058;2023-04-25T05:57:56;18.85;;;6.63;;
67108;SDS011;54027;50.786;7.058;2023-04-25T06:00:21;20.92;;;7.38;;
67108;SDS011;54027;50.786;7.058;2023-04-25T06:02:47;19.75;;;7.35;;
67108;SDS011;54027;50.786;7.058;2023-04-25T06:05:13;16.23;;;5.97;;
67108;SDS011;54027;50.786;7.058;2023-04-25T06:07:38;21.88;;;6.43;;
67108;SDS011;54027;50.786;7.058;2023-04-25T06:10:04;19.52;;;5.85;;
67108;SDS011;54027;50.786;7.058;2023-04-25T06:12:32;15.75;;;5.43;;
67108;SDS011;54027;50.786;7.058;2023-04-25T06:14:58;19.17;;;5.07;;
67108;SDS011;54027;50.786;7.058;2023-04-25T06:17:23;17.35;;;5.68;;
67108;SDS011;54027;50.786;7.058;2023-04-25T06:19:49;13.35;;;4.68;;
67108;SDS011;54027;50.786;7.058;2023-04-25T06:22:14;19.73;;;5.13;;
67108;SDS011;54027;50.786;7.058;2023-04-25T06:24:40;15.07;;;4.57;;
67108;SDS011;54027;50.786;7.058;2023-04-25T06:27:05;18.30;;;5.15;;
67108;SDS011;54027;50.786;7.058;2023-04-25T06:29:30;18.00;;;4.50;;
67108;SDS011;54027;50.786;7.058;2023-04-25T06:31:56;22.13;;;4.95;;
67108;SDS011;54027;50.786;7.058;2023-04-25T06:34:22;19.77;;;5.28;;
67108;SDS011;54027;50.786;7.058;2023-04-25T06:36:47;18.52;;;5.10;;
67108;SDS011;54027;50.786;7.058;2023-04-25T06:39:13;18.88;;;5.85;;
67108;SDS011;54027;50.786;7.058;2023-04-25T06:41:38;18.13;;;4.80;;
67108;SDS011;54027;50.786;7.058;2023-04-25T06:44:03;24.17;;;7.10;;
67108;SDS011;54027;50.786;7.058;2023-04-25T06:46:29;15.43;;;4.70;;
67108;SDS011;54027;50.786;7.058;2023-04-25T06:48:54;12.63;;;4.80;;
67108;SDS011;54027;50.786;7.058;2023-04-25T06:51:20;20.45;;;4.57;;
67108;SDS011;54027;50.786;7.058;2023-04-25T06:53:45;19.10;;;5.05;;
67108;SDS011;54027;50.786;7.058;2023-04-25T06:56:11;20.15;;;5.43;;
67108;SDS011;54027;50.786;7.058;2023-04-25T06:58:36;12.50;;;5.03;;
67108;SDS011;54027;50.786;7.058;2023-04-25T07:01:02;13.30;;;3.75;;
67108;SDS011;54027;50.786;7.058;2023-04-25T07:03:28;17.63;;;4.07;;
67108;SDS011;54027;50.786;7.058;2023-04-25T07:05:53;17.55;;;5.00;;
67108;SDS011;54027;50.786;7.058;2023-04-25T07:08:18;16.50;;;4.72;;
67108;SDS011;54027;50.786;7.058;2023-04-25T07:10:45;12.35;;;4.07;;
67108;SDS011;54027;50.786;7.058;2023-04-25T07:13:11;20.50;;;4.28;;
67108;SDS011;54027;50.786;7.058;2023-04-25T07:15:36;16.20;;;4.70;;
67108;SDS011;54027;50.786;7.058;2023-04-25T07:18:02;13.13;;;3.75;;
67108;SDS011;54027;50.786;7.058;2023-04-25T07:20:27;16.70;;;3.80;;
67108;SDS011;54027;50.786;7.058;2023-04-25T07:22:53;16.98;;;4.40;;
67108;SDS011;54027;50.786;7.058;2023-04-25T07:25:19;21.75;;;4.55;;
67108;SDS011;54027;50.786;7.058;2023-04-25T07:27:44;18.48;;;5.03;;
67108;SDS011;54027;50.786;7.058;2023-04-25T07:30:10;15.43;;;5.15;;
67108;SDS011;54027;50.786;7.058;2023-04-25T07:32:37;14.98;;;3.53;;
67108;SDS011;54027;50.786;7.058;2023-04-25T07:35:02;12.98;;;3.33;;
67108;SDS011;54027;50.786;7.058;2023-04-25T07:37:28;21.45;;;4.47;;
67108;SDS011;54027;50.786;7.058;2023-04-25T07:39:53;12.07;;;3.42;;
67108;SDS011;54027;50.786;7.058;2023-04-25T07:42:19;15.00;;;4.38;;
67108;SDS011;54027;50.786;7.058;2023-04-25T07:44:44;14.07;;;4.13;;
67108;SDS011;54027;50.786;7.058;2023-04-25T07:47:10;17.25;;;3.60;;
67108;SDS011;54027;50.786;7.058;2023-04-25T07:49:36;14.65;;;3.60;;
67108;SDS011;54027;50.786;7.058;2023-04-25T07:52:02;10.50;;;3.40;;
67108;SDS011;54027;50.786;7.058;2023-04-25T07:54:28;15.75;;;4.15;;
67108;SDS011;54027;50.786;7.058;2023-04-25T07:56:54;9.15;;;3.15;;
67108;SDS011;54027;50.786;7.058;2023-04-25T07:59:19;13.32;;;3.70;;
67108;SDS011;54027;50.786;7.058;2023-04-25T08:01:45;11.30;;;2.90;;
67108;SDS011;54027;50.786;7.058;2023-04-25T08:04:10;16.85;;;3.55;;
67108;SDS011;54027;50.786;7.058;2023-04-25T08:06:36;9.75;;;2.65;;
67108;SDS011;54027;50.786;7.058;2023-04-25T08:09:01;9.05;;;2.45;;
67108;SDS011;54027;50.786;7.058;2023-04-25T08:11:28;10.60;;;2.55;;
67108;SDS011;54027;50.786;7.058;2023-04-25T08:13:53;9.60;;;2.83;;
67108;SDS011;54027;50.786;7.058;2023-04-25T08:16:19;8.48;;;2.60;;
67108;SDS011;54027;50.786;7.058;2023-04-25T08:18:44;32.20;;;3.45;;
67108;SDS011;54027;50.786;7.058;2023-04-25T08:21:10;9.60;;;2.55;;
67108;SDS011;54027;50.786;7.058;2023-04-25T08:23:36;14.88;;;3.20;;
67108;SDS011;54027;50.786;7.058;2023-04-25T08:26:02;9.18;;;2.30;;
67108;SDS011;54027;50.786;7.058;2023-04-25T08:28:28;13.25;;;2.55;;
67108;SDS011;54027;50.786;7.058;2023-04-25T08:30:53;12.10;;;3.00;;
67108;SDS011;54027;50.786;7.058;2023-04-25T08:33:19;7.10;;;2.80;;
67108;SDS011;54027;50.786;7.058;2023-04-25T08:35:44;9.35;;;2.83;;
67108;SDS011;54027;50.786;7.058;2023-04-25T08:38:10;6.60;;;2.50;;
67108;SDS011;54027;50.786;7.058;2023-04-25T08:40:38;11.10;;;2.58;;
67108;SDS011;54027;50.786;7.058;2023-04-25T08:43:05;12.00;;;2.88;;
67108;SDS011;54027;50.786;7.058;2023-04-25T08:45:36;8.55;;;2.72;;
67108;SDS011;54027;50.786;7.058;2023-04-25T08:48:04;5.85;;;2.60;;
67108;SDS011;54027;50.786;7.058;2023-04-25T08:50:31;13.70;;;2.67;;
67108;SDS011;54027;50.786;7.058;2023-04-25T08:52:57;14.20;;;2.58;;
67108;SDS011;54027;50.786;7.058;2023-04-25T08:55:26;5.88;;;2.50;;
67108;SDS011;54027;50.786;7.058;2023-04-25T08:57:53;10.05;;;2.40;;
67108;SDS011;54027;50.786;7.058;2023-04-25T09:00:19;11.10;;;3.22;;
67108;SDS011;54027;50.786;7.058;2023-04-25T09:02:45;9.15;;;2.00;;
67108;SDS011;54027;50.786;7.058;2023-04-25T09:05:14;9.00;;;2.45;;
67108;SDS011;54027;50.786;7.058;2023-04-25T09:07:40;11.18;;;2.53;;
67108;SDS011;54027;50.786;7.058;2023-04-25T09:10:05;8.20;;;2.13;;
67108;SDS011;54027;50.786;7.058;2023-04-25T09:12:31;8.70;;;2.00;;
67108;SDS011;54027;50.786;7.058;2023-04-25T09:15:07;8.57;;;2.15;;
67108;SDS011;54027;50.786;7.058;2023-04-25T09:17:36;8.00;;;1.85;;
67108;SDS011;54027;50.786;7.058;2023-04-25T09:20:14;10.40;;;2.10;;
67108;SDS011;54027;50.786;7.058;2023-04-25T09:25:09;7.57;;;2.35;;
67108;SDS011;54027;50.786;7.058;2023-04-25T09:27:35;11.07;;;2.15;;
67108;SDS011;54027;50.786;7.058;2023-04-25T09:30:01;7.40;;;1.85;;
67108;SDS011;54027;50.786;7.058;2023-04-25T09:32:27;13.85;;;1.70;;
67108;SDS011;54027;50.786;7.058;2023-04-25T09:34:53;9.48;;;2.35;;
67108;SDS011;54027;50.786;7.058;2023-04-25T09:37:27;9.23;;;2.22;;
67108;SDS011;54027;50.786;7.058;2023-04-25T09:39:54;5.82;;;2.20;;
67108;SDS011;54027;50.786;7.058;2023-04-25T09:42:21;7.28;;;2.03;;
67108;SDS011;54027;50.786;7.058;2023-04-25T09:44:49;6.18;;;2.22;;
67108;SDS011;54027;50.786;7.058;2023-04-25T09:47:17;5.85;;;2.15;;
67108;SDS011;54027;50.786;7.058;2023-04-25T09:49:43;6.55;;;2.00;;
67108;SDS011;54027;50.786;7.058;2023-04-25T09:52:09;9.05;;;2.20;;
67108;SDS011;54027;50.786;7.058;2023-04-25T09:54:39;10.07;;;2.42;;
67108;SDS011;54027;50.786;7.058;2023-04-25T09:57:10;8.93;;;2.35;;
67108;SDS011;54027;50.786;7.058;2023-04-25T09:59:39;9.80;;;2.78;;
67108;SDS011;54027;50.786;7.058;2023-04-25T10:02:08;7.32;;;2.33;;
67108;SDS011;54027;50.786;7.058;2023-04-25T10:04:34;9.57;;;2.05;;
67108;SDS011;54027;50.786;7.058;2023-04-25T10:07:02;7.97;;;2.05;;
67108;SDS011;54027;50.786;7.058;2023-04-25T10:09:30;8.57;;;2.83;;
67108;SDS011;54027;50.786;7.058;2023-04-25T10:11:58;10.23;;;2.15;;
67108;SDS011;54027;50.786;7.058;2023-04-25T10:14:26;9.65;;;2.05;;
67108;SDS011;54027;50.786;7.058;2023-04-25T10:16:51;6.28;;;1.90;;
67108;SDS011;54027;50.786;7.058;2023-04-25T10:19:19;9.88;;;2.67;;
67108;SDS011;54027;50.786;7.058;2023-04-25T10:21:52;8.18;;;2.47;;
67108;SDS011;54027;50.786;7.058;2023-04-25T10:24:17;9.20;;;2.13;;
67108;SDS011;54027;50.786;7.058;2023-04-25T10:26:44;13.20;;;2.15;;
67108;SDS011;54027;50.786;7.058;2023-04-25T10:29:10;6.68;;;1.98;;
67108;SDS011;54027;50.786;7.058;2023-04-25T10:31:44;7.50;;;2.35;;
67108;SDS011;54027;50.786;7.058;2023-04-25T10:34:12;4.80;;;1.88;;
67108;SDS011;54027;50.786;7.058;2023-04-25T10:36:38;13.80;;;3.00;;
67108;SDS011;54027;50.786;7.058;2023-04-25T10:39:05;10.55;;;2.63;;
67108;SDS011;54027;50.786;7.058;2023-04-25T10:41:32;13.85;;;2.78;;
67108;SDS011;54027;50.786;7.058;2023-04-25T10:44:10;10.73;;;3.00;;
67108;SDS011;54027;50.786;7.058;2023-04-25T10:46:36;9.48;;;2.65;;
67108;SDS011;54027;50.786;7.058;2023-04-25T10:49:02;9.15;;;2.72;;
67108;SDS011;54027;50.786;7.058;2023-04-25T10:59:09;8.50;;;3.22;;
67108;SDS011;54027;50.786;7.058;2023-04-25T11:01:37;10.50;;;3.20;;
67108;SDS011;54027;50.786;7.058;2023-04-25T11:04:20;10.57;;;2.72;;
67108;SDS011;54027;50.786;7.058;2023-04-25T11:09:29;8.32;;;2.30;;
67108;SDS011;54027;50.786;7.058;2023-04-25T11:11:58;9.93;;;3.00;;
67108;SDS011;54027;50.786;7.058;2023-04-25T11:14:25;7.47;;;2.40;;
67108;SDS011;54027;50.786;7.058;2023-04-25T11:16:55;11.82;;;2.20;;
67108;SDS011;54027;50.786;7.058;2023-04-25T11:19:22;8.25;;;2.25;;
67108;SDS011;54027;50.786;7.058;2023-04-25T11:21:48;9.90;;;2.80;;
67108;SDS011;54027;50.786;7.058;2023-04-25T11:24:13;8.38;;;2.60;;
67108;SDS011;54027;50.786;7.058;2023-04-25T11:26:41;9.88;;;2.95;;
67108;SDS011;54027;50.786;7.058;2023-04-25T11:29:07;9.23;;;2.88;;
67108;SDS011;54027;50.786;7.058;2023-04-25T11:31:33;8.32;;;2.60;;
67108;SDS011;54027;50.786;7.058;2023-04-25T11:33:59;11.73;;;3.05;;
67108;SDS011;54027;50.786;7.058;2023-04-25T11:36:25;10.27;;;2.28;;
67108;SDS011;54027;50.786;7.058;2023-04-25T11:38:51;9.43;;;3.45;;
67108;SDS011;54027;50.786;7.058;2023-04-25T11:41:18;7.82;;;2.88;;
67108;SDS011;54027;50.786;7.058;2023-04-25T11:43:45;10.95;;;2.63;;
67108;SDS011;54027;50.786;7.058;2023-04-25T11:46:10;10.85;;;3.13;;
67108;SDS011;54027;50.786;7.058;2023-04-25T11:48:37;12.55;;;2.47;;
67108;SDS011;54027;50.786;7.058;2023-04-25T11:51:05;8.77;;;2.13;;
67108;SDS011;54027;50.786;7.058;2023-04-25T11:53:31;4.47;;;1.70;;
67108;SDS011;54027;50.786;7.058;2023-04-25T11:55:56;9.60;;;1.95;;
67108;SDS011;54027;50.786;7.058;2023-04-25T11:58:22;4.35;;;1.60;;
67108;SDS011;54027;50.786;7.058;2023-04-25T12:00:47;3.80;;;1.45;;
67108;SDS011;54027;50.786;7.058;2023-04-25T12:03:13;6.95;;;1.88;;
67108;SDS011;54027;50.786;7.058;2023-04-25T12:05:38;5.25;;;2.40;;
67108;SDS011;54027;50.786;7.058;2023-04-25T12:08:14;9.25;;;1.70;;
67108;SDS011;54027;50.786;7.058;2023-04-25T12:10:41;6.53;;;2.15;;
67108;SDS011;54027;50.786;7.058;2023-04-25T12:13:21;4.40;;;1.67;;
67108;SDS011;54027;50.786;7.058;2023-04-25T12:15:50;6.40;;;1.67;;
67108;SDS011;54027;50.786;7.058;2023-04-25T12:18:20;11.88;;;2.40;;
67108;SDS011;54027;50.786;7.058;2023-04-25T12:20:47;9.45;;;2.30;;
67108;SDS011;54027;50.786;7.058;2023-04-25T12:23:13;6.82;;;2.05;;
67108;SDS011;54027;50.786;7.058;2023-04-25T12:25:42;6.68;;;2.22;;
67108;SDS011;54027;50.786;7.058;2023-04-25T12:33:29;7.03;;;1.77;;
67108;SDS011;54027;50.786;7.058;2023-04-25T12:35:55;5.88;;;1.80;;
67108;SDS011;54027;50.786;7.058;2023-04-25T12:38:23;8.55;;;2.15;;
67108;SDS011;54027;50.786;7.058;2023-04-25T12:40:59;6.90;;;1.80;;
67108;SDS011;54027;50.786;7.058;2023-04-25T12:43:25;8.43;;;2.22;;
67108;SDS011;54027;50.786;7.058;2023-04-25T12:45:51;6.68;;;1.70;;
67108;SDS011;54027;50.786;7.058;2023-04-25T12:48:18;6.57;;;2.05;;
67108;SDS011;54027;50.786;7.058;2023-04-25T12:50:44;4.55;;;2.30;;
67108;SDS011;54027;50.786;7.058;2023-04-25T12:53:10;5.40;;;1.90;;
67108;SDS011;54027;50.786;7.058;2023-04-25T12:55:36;8.85;;;1.90;;
67108;SDS011;54027;50.786;7.058;2023-04-25T12:58:02;7.07;;;1.90;;
67108;SDS011;54027;50.786;7.058;2023-04-25T13:00:28;7.43;;;2.20;;
67108;SDS011;54027;50.786;7.058;2023-04-25T13:02:53;3.58;;;1.88;;
67108;SDS011;54027;50.786;7.058;2023-04-25T13:05:19;8.73;;;1.88;;
67108;SDS011;54027;50.786;7.058;2023-04-25T13:07:44;7.32;;;2.53;;
67108;SDS011;54027;50.786;7.058;2023-04-25T13:10:10;5.57;;;2.05;;
67108;SDS011;54027;50.786;7.058;2023-04-25T13:12:35;6.07;;;1.85;;
67108;SDS011;54027;50.786;7.058;2023-04-25T13:15:00;6.00;;;1.77;;
67108;SDS011;54027;50.786;7.058;2023-04-25T13:17:26;6.82;;;1.92;;
67108;SDS011;54027;50.786;7.058;2023-04-25T13:19:51;7.90;;;1.90;;
67108;SDS011;54027;50.786;7.058;2023-04-25T13:22:17;6.55;;;2.20;;
67108;SDS011;54027;50.786;7.058;2023-04-25T13:24:45;9.13;;;1.95;;
67108;SDS011;54027;50.786;7.058;2023-04-25T13:27:10;7.05;;;2.33;;
67108;SDS011;54027;50.786;7.058;2023-04-25T13:29:36;7.35;;;1.75;;
67108;SDS011;54027;50.786;7.058;2023-04-25T13:32:03;4.47;;;1.83;;
67108;SDS011;54027;50.786;7.058;2023-04-25T13:34:29;5.85;;;2.22;;
67108;SDS011;54027;50.786;7.058;2023-04-25T13:36:55;4.85;;;1.70;;
67108;SDS011;54027;50.786;7.058;2023-04-25T13:39:20;6.75;;;2.45;;
67108;SDS011;54027;50.786;7.058;2023-04-25T13:41:46;7.68;;;3.30;;
67108;SDS011;54027;50.786;7.058;2023-04-25T13:44:11;10.60;;;2.63;;
67108;SDS011;54027;50.786;7.058;2023-04-25T13:46:37;6.20;;;2.00;;
67108;SDS011;54027;50.786;7.058;2023-04-25T13:49:05;3.67;;;2.17;;
67108;SDS011;54027;50.786;7.058;2023-04-25T13:51:31;4.32;;;2.10;;
67108;SDS011;54027;50.786;7.058;2023-04-25T13:53:56;6.35;;;1.90;;
67108;SDS011;54027;50.786;7.058;2023-04-25T13:56:22;7.35;;;2.50;;
67108;SDS011;54027;50.786;7.058;2023-04-25T13:58:50;7.18;;;2.60;;
67108;SDS011;54027;50.786;7.058;2023-04-25T14:01:16;5.60;;;1.80;;
67108;SDS011;54027;50.786;7.058;2023-04-25T14:03:42;6.40;;;2.10;;
67108;SDS011;54027;50.786;7.058;2023-04-25T14:06:07;8.13;;;2.90;;
67108;SDS011;54027;50.786;7.058;2023-04-25T14:08:33;10.80;;;2.22;;
67108;SDS011;54027;50.786;7.058;2023-04-25T14:10:59;5.35;;;2.05;;
67108;SDS011;54027;50.786;7.058;2023-04-25T14:13:24;5.85;;;2.05;;
67108;SDS011;54027;50.786;7.058;2023-04-25T14:15:50;7.25;;;2.08;;
67108;SDS011;54027;50.786;7.058;2023-04-25T14:18:15;5.95;;;1.95;;
67108;SDS011;54027;50.786;7.058;2023-04-25T14:20:41;5.80;;;1.92;;
67108;SDS011;54027;50.786;7.058;2023-04-25T14:23:06;6.95;;;2.28;;
67108;SDS011;54027;50.786;7.058;2023-04-25T14:25:31;5.95;;;1.60;;
67108;SDS011;54027;50.786;7.058;2023-04-25T14:27:57;6.93;;;2.05;;
67108;SDS011;54027;50.786;7.058;2023-04-25T14:30:22;6.47;;;2.25;;
67108;SDS011;54027;50.786;7.058;2023-04-25T14:32:51;8.43;;;2.22;;
67108;SDS011;54027;50.786;7.058;2023-04-25T14:35:16;5.10;;;1.83;;
67108;SDS011;54027;50.786;7.058;2023-04-25T14:37:42;6.55;;;2.03;;
67108;SDS011;54027;50.786;7.058;2023-04-25T14:40:08;6.63;;;2.25;;
67108;SDS011;54027;50.786;7.058;2023-04-25T14:42:35;4.93;;;1.83;;
67108;SDS011;54027;50.786;7.058;2023-04-25T14:45:02;4.78;;;1.80;;
67108;SDS011;54027;50.786;7.058;2023-04-25T14:47:28;5.00;;;1.40;;
67108;SDS011;54027;50.786;7.058;2023-04-25T14:49:54;4.38;;;1.60;;